sensor_id;sensor_type;location;lat;lon;timestamp;temperature;humidity
16976;DHT22;8604;48.148;-1.786;2024-02-21T00:02:21;10.00;99.90
16976;DHT22;8604;48.148;-1.786;2024-02-21T00:04:51;10.00;99.90
16976;DHT22;8604;48.148;-1.786;2024-02-21T00:07:19;9.90;99.90
16976;DHT22;8604;48.148;-1.786;2024-02-21T00:09:48;10.00;99.90
16976;DHT22;8604;48.148;-1.786;2024-02-21T00:12:16;10.00;99.90
16976;DHT22;8604;48.148;-1.786;2024-02-21T00:14:45;10.00;99.90
16976;DHT22;8604;48.148;-1.786;2024-02-21T00:17:13;10.00;99.90
16976;DHT22;8604;48.148;-1.786;2024-02-21T00:19:41;10.00;99.90
16976;DHT22;8604;48.148;-1.786;2024-02-21T00:22:11;10.00;99.90
16976;DHT22;8604;48.148;-1.786;2024-02-21T00:24:40;10.00;99.90
16976;DHT22;8604;48.148;-1.786;2024-02-21T00:27:08;10.00;99.90
16976;DHT22;8604;48.148;-1.786;2024-02-21T00:29:37;10.00;99.90
16976;DHT22;8604;48.148;-1.786;2024-02-21T00:32:06;10.00;99.90
16976;DHT22;8604;48.148;-1.786;2024-02-21T00:34:34;10.00;99.90
16976;DHT22;8604;48.148;-1.786;2024-02-21T00:37:03;10.00;99.90
16976;DHT22;8604;48.148;-1.786;2024-02-21T00:39:32;10.00;99.90
16976;DHT22;8604;48.148;-1.786;2024-02-21T00:42:01;10.00;99.90
16976;DHT22;8604;48.148;-1.786;2024-02-21T00:44:29;10.00;99.90
16976;DHT22;8604;48.148;-1.786;2024-02-21T00:46:57;10.00;99.90
16976;DHT22;8604;48.148;-1.786;2024-02-21T00:49:26;10.00;99.90
16976;DHT22;8604;48.148;-1.786;2024-02-21T00:51:54;10.00;99.90
16976;DHT22;8604;48.148;-1.786;2024-02-21T00:54:22;10.00;99.90
16976;DHT22;8604;48.148;-1.786;2024-02-21T00:56:53;10.00;99.90
16976;DHT22;8604;48.148;-1.786;2024-02-21T00:59:21;10.00;99.90
16976;DHT22;8604;48.148;-1.786;2024-02-21T01:01:50;10.00;99.90
16976;DHT22;8604;48.148;-1.786;2024-02-21T01:04:18;10.00;99.90
16976;DHT22;8604;48.148;-1.786;2024-02-21T01:06:47;10.00;99.90
16976;DHT22;8604;48.148;-1.786;2024-02-21T01:09:15;9.90;99.90
16976;DHT22;8604;48.148;-1.786;2024-02-21T01:11:43;10.00;99.90
16976;DHT22;8604;48.148;-1.786;2024-02-21T01:14:13;9.90;99.90
16976;DHT22;8604;48.148;-1.786;2024-02-21T01:16:41;10.00;99.90
16976;DHT22;8604;48.148;-1.786;2024-02-21T01:19:10;10.00;99.90
16976;DHT22;8604;48.148;-1.786;2024-02-21T01:21:38;10.00;99.90
16976;DHT22;8604;48.148;-1.786;2024-02-21T01:24:06;9.90;99.90
16976;DHT22;8604;48.148;-1.786;2024-02-21T01:26:35;9.90;99.90
16976;DHT22;8604;48.148;-1.786;2024-02-21T01:29:03;9.90;99.90
16976;DHT22;8604;48.148;-1.786;2024-02-21T01:31:33;10.00;99.90
16976;DHT22;8604;48.148;-1.786;2024-02-21T01:34:01;10.00;99.90
16976;DHT22;8604;48.148;-1.786;2024-02-21T01:36:29;9.90;99.90
16976;DHT22;8604;48.148;-1.786;2024-02-21T01:38:58;10.00;99.90
16976;DHT22;8604;48.148;-1.786;2024-02-21T01:41:26;10.00;99.90
16976;DHT22;8604;48.148;-1.786;2024-02-21T01:43:54;10.00;99.90
16976;DHT22;8604;48.148;-1.786;2024-02-21T01:46:23;10.00;99.90
16976;DHT22;8604;48.148;-1.786;2024-02-21T01:48:57;10.00;99.90
16976;DHT22;8604;48.148;-1.786;2024-02-21T01:51:26;10.00;99.90
16976;DHT22;8604;48.148;-1.786;2024-02-21T01:53:55;10.00;99.90
16976;DHT22;8604;48.148;-1.786;2024-02-21T01:56:24;9.90;99.90
16976;DHT22;8604;48.148;-1.786;2024-02-21T01:58:53;9.90;99.90
16976;DHT22;8604;48.148;-1.786;2024-02-21T02:01:22;9.90;99.90
16976;DHT22;8604;48.148;-1.786;2024-02-21T02:03:51;10.00;99.90
16976;DHT22;8604;48.148;-1.786;2024-02-21T02:06:21;9.90;99.90
16976;DHT22;8604;48.148;-1.786;2024-02-21T02:08:50;9.90;99.90
16976;DHT22;8604;48.148;-1.786;2024-02-21T02:11:18;9.90;99.90
16976;DHT22;8604;48.148;-1.786;2024-02-21T02:13:47;9.90;99.90
16976;DHT22;8604;48.148;-1.786;2024-02-21T02:16:15;9.90;99.90
16976;DHT22;8604;48.148;-1.786;2024-02-21T02:18:44;9.90;99.90
16976;DHT22;8604;48.148;-1.786;2024-02-21T02:21:20;9.90;99.90
16976;DHT22;8604;48.148;-1.786;2024-02-21T02:23:52;9.90;99.90
16976;DHT22;8604;48.148;-1.786;2024-02-21T02:26:21;9.90;99.90
16976;DHT22;8604;48.148;-1.786;2024-02-21T02:28:49;9.90;99.90
16976;DHT22;8604;48.148;-1.786;2024-02-21T02:31:18;10.00;99.90
16976;DHT22;8604;48.148;-1.786;2024-02-21T02:33:46;9.90;99.90
16976;DHT22;8604;48.148;-1.786;2024-02-21T02:36:15;10.00;99.90
16976;DHT22;8604;48.148;-1.786;2024-02-21T02:38:44;9.90;99.90
16976;DHT22;8604;48.148;-1.786;2024-02-21T02:41:14;9.90;99.90
16976;DHT22;8604;48.148;-1.786;2024-02-21T02:43:42;9.90;99.90
16976;DHT22;8604;48.148;-1.786;2024-02-21T02:46:11;9.90;99.90
16976;DHT22;8604;48.148;-1.786;2024-02-21T02:48:39;9.90;99.90
16976;DHT22;8604;48.148;-1.786;2024-02-21T02:51:08;9.90;99.90
16976;DHT22;8604;48.148;-1.786;2024-02-21T02:53:36;9.90;99.90
16976;DHT22;8604;48.148;-1.786;2024-02-21T02:56:05;9.90;99.90
16976;DHT22;8604;48.148;-1.786;2024-02-21T02:58:34;9.90;99.90
16976;DHT22;8604;48.148;-1.786;2024-02-21T03:01:03;9.90;99.90
16976;DHT22;8604;48.148;-1.786;2024-02-21T03:03:32;9.90;99.90
16976;DHT22;8604;48.148;-1.786;2024-02-21T03:06:00;9.90;99.90
16976;DHT22;8604;48.148;-1.786;2024-02-21T03:08:29;9.90;99.90
16976;DHT22;8604;48.148;-1.786;2024-02-21T03:10:57;9.80;99.90
16976;DHT22;8604;48.148;-1.786;2024-02-21T03:13:26;9.80;99.90
16976;DHT22;8604;48.148;-1.786;2024-02-21T03:15:56;9.80;99.90
16976;DHT22;8604;48.148;-1.786;2024-02-21T03:18:25;9.80;99.90
16976;DHT22;8604;48.148;-1.786;2024-02-21T03:20:53;9.80;99.90
16976;DHT22;8604;48.148;-1.786;2024-02-21T03:23:22;9.80;99.90
16976;DHT22;8604;48.148;-1.786;2024-02-21T03:25:50;9.80;99.90
16976;DHT22;8604;48.148;-1.786;2024-02-21T03:28:19;9.80;99.90
16976;DHT22;8604;48.148;-1.786;2024-02-21T03:30:47;9.80;99.90
16976;DHT22;8604;48.148;-1.786;2024-02-21T03:33:17;9.80;99.90
16976;DHT22;8604;48.148;-1.786;2024-02-21T03:35:47;9.80;99.90
16976;DHT22;8604;48.148;-1.786;2024-02-21T03:38:15;9.80;99.90
16976;DHT22;8604;48.148;-1.786;2024-02-21T03:40:44;9.80;99.90
16976;DHT22;8604;48.148;-1.786;2024-02-21T03:43:12;9.80;99.90
16976;DHT22;8604;48.148;-1.786;2024-02-21T03:45:41;9.80;99.90
16976;DHT22;8604;48.148;-1.786;2024-02-21T03:48:09;9.80;99.90
16976;DHT22;8604;48.148;-1.786;2024-02-21T03:50:40;9.80;99.90
16976;DHT22;8604;48.148;-1.786;2024-02-21T03:53:08;9.80;99.90
16976;DHT22;8604;48.148;-1.786;2024-02-21T03:55:37;9.80;99.90
16976;DHT22;8604;48.148;-1.786;2024-02-21T03:58:06;9.80;99.90
16976;DHT22;8604;48.148;-1.786;2024-02-21T04:00:35;9.80;99.90
16976;DHT22;8604;48.148;-1.786;2024-02-21T04:03:03;9.90;99.90
16976;DHT22;8604;48.148;-1.786;2024-02-21T04:05:33;9.80;99.90
16976;DHT22;8604;48.148;-1.786;2024-02-21T04:08:05;9.80;99.90
16976;DHT22;8604;48.148;-1.786;2024-02-21T04:10:33;9.80;99.90
16976;DHT22;8604;48.148;-1.786;2024-02-21T04:13:03;9.80;99.90
16976;DHT22;8604;48.148;-1.786;2024-02-21T04:15:31;9.80;99.90
16976;DHT22;8604;48.148;-1.786;2024-02-21T04:18:00;9.80;99.90
16976;DHT22;8604;48.148;-1.786;2024-02-21T04:20:28;9.80;99.90
16976;DHT22;8604;48.148;-1.786;2024-02-21T04:22:57;9.80;99.90
16976;DHT22;8604;48.148;-1.786;2024-02-21T04:25:27;9.80;99.90
16976;DHT22;8604;48.148;-1.786;2024-02-21T04:27:55;9.80;99.90
16976;DHT22;8604;48.148;-1.786;2024-02-21T04:30:23;9.80;99.90
16976;DHT22;8604;48.148;-1.786;2024-02-21T04:32:51;9.80;99.90
16976;DHT22;8604;48.148;-1.786;2024-02-21T04:35:20;9.80;99.90
16976;DHT22;8604;48.148;-1.786;2024-02-21T04:37:49;9.80;99.90
16976;DHT22;8604;48.148;-1.786;2024-02-21T04:40:18;9.80;99.90
16976;DHT22;8604;48.148;-1.786;2024-02-21T04:42:47;9.80;99.90
16976;DHT22;8604;48.148;-1.786;2024-02-21T04:45:16;9.80;99.90
16976;DHT22;8604;48.148;-1.786;2024-02-21T04:47:45;9.80;99.90
16976;DHT22;8604;48.148;-1.786;2024-02-21T04:50:13;9.90;99.90
16976;DHT22;8604;48.148;-1.786;2024-02-21T04:52:42;9.80;99.90
16976;DHT22;8604;48.148;-1.786;2024-02-21T04:55:10;9.80;99.90
16976;DHT22;8604;48.148;-1.786;2024-02-21T04:57:39;9.80;99.90
16976;DHT22;8604;48.148;-1.786;2024-02-21T05:00:09;9.80;99.90
16976;DHT22;8604;48.148;-1.786;2024-02-21T05:02:38;9.80;99.90
16976;DHT22;8604;48.148;-1.786;2024-02-21T05:05:06;9.90;99.90
16976;DHT22;8604;48.148;-1.786;2024-02-21T05:07:35;9.90;99.90
16976;DHT22;8604;48.148;-1.786;2024-02-21T05:10:04;9.90;99.90
16976;DHT22;8604;48.148;-1.786;2024-02-21T05:12:33;9.90;99.90
16976;DHT22;8604;48.148;-1.786;2024-02-21T05:15:01;9.90;99.90
16976;DHT22;8604;48.148;-1.786;2024-02-21T05:17:31;9.90;99.90
16976;DHT22;8604;48.148;-1.786;2024-02-21T05:20:00;9.80;99.90
16976;DHT22;8604;48.148;-1.786;2024-02-21T05:22:28;9.80;99.90
16976;DHT22;8604;48.148;-1.786;2024-02-21T05:24:57;9.90;99.90
16976;DHT22;8604;48.148;-1.786;2024-02-21T05:27:25;9.90;99.90
16976;DHT22;8604;48.148;-1.786;2024-02-21T05:29:53;9.90;99.90
16976;DHT22;8604;48.148;-1.786;2024-02-21T05:32:22;9.90;99.90
16976;DHT22;8604;48.148;-1.786;2024-02-21T05:34:51;9.90;99.90
16976;DHT22;8604;48.148;-1.786;2024-02-21T05:37:20;9.90;99.90
16976;DHT22;8604;48.148;-1.786;2024-02-21T05:39:48;9.90;99.90
16976;DHT22;8604;48.148;-1.786;2024-02-21T05:42:17;9.90;99.90
16976;DHT22;8604;48.148;-1.786;2024-02-21T05:44:45;9.90;99.90
16976;DHT22;8604;48.148;-1.786;2024-02-21T05:47:13;9.90;99.90
16976;DHT22;8604;48.148;-1.786;2024-02-21T05:49:43;9.90;99.90
16976;DHT22;8604;48.148;-1.786;2024-02-21T05:52:12;9.80;99.90
16976;DHT22;8604;48.148;-1.786;2024-02-21T05:54:41;9.90;99.90
16976;DHT22;8604;48.148;-1.786;2024-02-21T05:57:09;9.90;99.90
16976;DHT22;8604;48.148;-1.786;2024-02-21T05:59:38;9.90;99.90
16976;DHT22;8604;48.148;-1.786;2024-02-21T06:02:08;9.90;99.90
16976;DHT22;8604;48.148;-1.786;2024-02-21T06:04:37;9.90;99.90
16976;DHT22;8604;48.148;-1.786;2024-02-21T06:07:06;9.90;99.90
16976;DHT22;8604;48.148;-1.786;2024-02-21T06:09:36;9.90;99.90
16976;DHT22;8604;48.148;-1.786;2024-02-21T06:12:05;9.90;99.90
16976;DHT22;8604;48.148;-1.786;2024-02-21T06:14:33;9.90;99.90
16976;DHT22;8604;48.148;-1.786;2024-02-21T06:17:02;9.90;99.90
16976;DHT22;8604;48.148;-1.786;2024-02-21T06:19:30;9.90;99.90
16976;DHT22;8604;48.148;-1.786;2024-02-21T06:21:59;9.90;99.90
16976;DHT22;8604;48.148;-1.786;2024-02-21T06:24:27;10.00;99.90
16976;DHT22;8604;48.148;-1.786;2024-02-21T06:26:57;10.00;99.90
16976;DHT22;8604;48.148;-1.786;2024-02-21T06:29:25;10.00;99.90
16976;DHT22;8604;48.148;-1.786;2024-02-21T06:31:53;9.90;99.90
16976;DHT22;8604;48.148;-1.786;2024-02-21T06:34:22;9.90;99.90
16976;DHT22;8604;48.148;-1.786;2024-02-21T06:36:51;9.90;99.90
16976;DHT22;8604;48.148;-1.786;2024-02-21T06:39:19;9.90;99.90
16976;DHT22;8604;48.148;-1.786;2024-02-21T06:41:50;9.90;99.90
16976;DHT22;8604;48.148;-1.786;2024-02-21T06:44:21;9.90;99.90
16976;DHT22;8604;48.148;-1.786;2024-02-21T06:46:49;9.90;99.90
16976;DHT22;8604;48.148;-1.786;2024-02-21T06:49:18;9.90;99.90
16976;DHT22;8604;48.148;-1.786;2024-02-21T06:51:46;9.90;99.90
16976;DHT22;8604;48.148;-1.786;2024-02-21T06:54:15;9.90;99.90
16976;DHT22;8604;48.148;-1.786;2024-02-21T06:56:43;9.90;99.90
16976;DHT22;8604;48.148;-1.786;2024-02-21T06:59:11;10.00;99.90
16976;DHT22;8604;48.148;-1.786;2024-02-21T07:01:47;10.00;99.90
16976;DHT22;8604;48.148;-1.786;2024-02-21T07:04:15;10.00;99.90
16976;DHT22;8604;48.148;-1.786;2024-02-21T07:06:44;9.90;99.90
16976;DHT22;8604;48.148;-1.786;2024-02-21T07:09:14;10.00;99.90
16976;DHT22;8604;48.148;-1.786;2024-02-21T07:11:42;10.00;99.90
16976;DHT22;8604;48.148;-1.786;2024-02-21T07:14:11;10.00;99.90
16976;DHT22;8604;48.148;-1.786;2024-02-21T07:16:39;10.00;99.90
16976;DHT22;8604;48.148;-1.786;2024-02-21T07:19:09;10.00;99.90
16976;DHT22;8604;48.148;-1.786;2024-02-21T07:21:37;10.00;99.90
16976;DHT22;8604;48.148;-1.786;2024-02-21T07:24:08;10.00;99.90
16976;DHT22;8604;48.148;-1.786;2024-02-21T07:26:36;10.00;99.90
16976;DHT22;8604;48.148;-1.786;2024-02-21T07:29:04;10.00;99.90
16976;DHT22;8604;48.148;-1.786;2024-02-21T07:31:38;10.10;99.90
16976;DHT22;8604;48.148;-1.786;2024-02-21T07:34:08;10.10;99.90
16976;DHT22;8604;48.148;-1.786;2024-02-21T07:36:37;10.10;99.90
16976;DHT22;8604;48.148;-1.786;2024-02-21T07:39:06;10.10;99.90
16976;DHT22;8604;48.148;-1.786;2024-02-21T07:41:34;10.10;99.90
16976;DHT22;8604;48.148;-1.786;2024-02-21T07:44:03;10.10;99.90
16976;DHT22;8604;48.148;-1.786;2024-02-21T07:46:31;10.10;99.90
16976;DHT22;8604;48.148;-1.786;2024-02-21T07:49:00;10.10;99.90
16976;DHT22;8604;48.148;-1.786;2024-02-21T07:51:30;10.10;99.90
16976;DHT22;8604;48.148;-1.786;2024-02-21T07:53:59;10.20;99.90
16976;DHT22;8604;48.148;-1.786;2024-02-21T07:56:28;10.20;99.90
16976;DHT22;8604;48.148;-1.786;2024-02-21T07:58:56;10.20;99.90
16976;DHT22;8604;48.148;-1.786;2024-02-21T08:01:25;10.20;99.90
16976;DHT22;8604;48.148;-1.786;2024-02-21T08:03:53;10.20;99.90
16976;DHT22;8604;48.148;-1.786;2024-02-21T08:06:22;10.20;99.90
16976;DHT22;8604;48.148;-1.786;2024-02-21T08:08:52;10.30;99.90
16976;DHT22;8604;48.148;-1.786;2024-02-21T08:11:20;10.30;99.90
16976;DHT22;8604;48.148;-1.786;2024-02-21T08:13:49;10.30;99.90
16976;DHT22;8604;48.148;-1.786;2024-02-21T08:16:17;10.30;99.90
16976;DHT22;8604;48.148;-1.786;2024-02-21T08:18:45;10.30;99.90
16976;DHT22;8604;48.148;-1.786;2024-02-21T08:21:14;10.30;99.90
16976;DHT22;8604;48.148;-1.786;2024-02-21T08:23:42;10.40;99.90
16976;DHT22;8604;48.148;-1.786;2024-02-21T08:26:11;10.40;99.90
16976;DHT22;8604;48.148;-1.786;2024-02-21T08:28:39;10.40;99.90
16976;DHT22;8604;48.148;-1.786;2024-02-21T08:31:08;10.40;99.90
16976;DHT22;8604;48.148;-1.786;2024-02-21T08:33:36;10.40;99.90
16976;DHT22;8604;48.148;-1.786;2024-02-21T08:36:05;10.50;99.90
16976;DHT22;8604;48.148;-1.786;2024-02-21T08:38:35;10.50;99.90
16976;DHT22;8604;48.148;-1.786;2024-02-21T08:41:05;10.50;99.90
16976;DHT22;8604;48.148;-1.786;2024-02-21T08:43:34;10.50;99.90
16976;DHT22;8604;48.148;-1.786;2024-02-21T08:46:03;10.50;99.90
16976;DHT22;8604;48.148;-1.786;2024-02-21T08:48:32;10.50;99.90
16976;DHT22;8604;48.148;-1.786;2024-02-21T08:51:00;10.50;99.90
16976;DHT22;8604;48.148;-1.786;2024-02-21T08:53:28;10.50;99.90
16976;DHT22;8604;48.148;-1.786;2024-02-21T08:55:57;10.50;99.90
16976;DHT22;8604;48.148;-1.786;2024-02-21T08:58:26;10.60;99.90
16976;DHT22;8604;48.148;-1.786;2024-02-21T09:00:56;10.60;99.90
16976;DHT22;8604;48.148;-1.786;2024-02-21T09:03:24;10.60;99.90
16976;DHT22;8604;48.148;-1.786;2024-02-21T09:05:53;10.60;99.90
16976;DHT22;8604;48.148;-1.786;2024-02-21T09:08:21;10.70;99.90
16976;DHT22;8604;48.148;-1.786;2024-02-21T09:10:51;10.70;99.90
16976;DHT22;8604;48.148;-1.786;2024-02-21T09:13:19;10.70;99.90
16976;DHT22;8604;48.148;-1.786;2024-02-21T09:15:48;10.70;99.90
16976;DHT22;8604;48.148;-1.786;2024-02-21T09:18:18;10.70;99.90
16976;DHT22;8604;48.148;-1.786;2024-02-21T09:20:46;10.70;99.90
16976;DHT22;8604;48.148;-1.786;2024-02-21T09:23:15;10.70;99.90
16976;DHT22;8604;48.148;-1.786;2024-02-21T09:25:43;10.70;99.90
16976;DHT22;8604;48.148;-1.786;2024-02-21T09:28:13;10.80;99.90
16976;DHT22;8604;48.148;-1.786;2024-02-21T09:30:41;10.80;99.90
16976;DHT22;8604;48.148;-1.786;2024-02-21T09:33:09;10.80;99.90
16976;DHT22;8604;48.148;-1.786;2024-02-21T09:35:47;10.80;99.90
16976;DHT22;8604;48.148;-1.786;2024-02-21T09:38:16;10.90;99.90
16976;DHT22;8604;48.148;-1.786;2024-02-21T09:40:45;10.90;99.90
16976;DHT22;8604;48.148;-1.786;2024-02-21T09:43:17;10.90;99.90
16976;DHT22;8604;48.148;-1.786;2024-02-21T09:45:48;11.00;99.90
16976;DHT22;8604;48.148;-1.786;2024-02-21T09:48:34;11.00;99.90
16976;DHT22;8604;48.148;-1.786;2024-02-21T09:51:09;11.00;99.90
16976;DHT22;8604;48.148;-1.786;2024-02-21T09:53:38;11.00;99.90
16976;DHT22;8604;48.148;-1.786;2024-02-21T09:56:14;11.00;99.90
16976;DHT22;8604;48.148;-1.786;2024-02-21T09:58:43;11.10;99.90
16976;DHT22;8604;48.148;-1.786;2024-02-21T10:01:11;11.10;99.90
16976;DHT22;8604;48.148;-1.786;2024-02-21T10:03:56;11.10;99.90
16976;DHT22;8604;48.148;-1.786;2024-02-21T10:06:26;11.10;99.90
16976;DHT22;8604;48.148;-1.786;2024-02-21T10:08:55;11.10;99.90
16976;DHT22;8604;48.148;-1.786;2024-02-21T10:11:23;11.10;99.90
16976;DHT22;8604;48.148;-1.786;2024-02-21T10:14:02;11.20;99.90
16976;DHT22;8604;48.148;-1.786;2024-02-21T10:16:31;11.20;99.90
16976;DHT22;8604;48.148;-1.786;2024-02-21T10:19:00;11.20;99.90
16976;DHT22;8604;48.148;-1.786;2024-02-21T10:21:32;11.30;99.90
16976;DHT22;8604;48.148;-1.786;2024-02-21T10:24:01;11.30;99.90
16976;DHT22;8604;48.148;-1.786;2024-02-21T10:26:30;11.30;99.90
16976;DHT22;8604;48.148;-1.786;2024-02-21T10:28:58;11.30;99.90
16976;DHT22;8604;48.148;-1.786;2024-02-21T10:31:27;11.30;99.90
16976;DHT22;8604;48.148;-1.786;2024-02-21T10:33:57;11.40;99.90
16976;DHT22;8604;48.148;-1.786;2024-02-21T10:36:26;11.40;99.90
16976;DHT22;8604;48.148;-1.786;2024-02-21T10:38:56;11.40;99.90
16976;DHT22;8604;48.148;-1.786;2024-02-21T10:41:24;11.40;99.90
16976;DHT22;8604;48.148;-1.786;2024-02-21T10:43:55;11.40;99.90
16976;DHT22;8604;48.148;-1.786;2024-02-21T10:46:24;11.50;99.90
16976;DHT22;8604;48.148;-1.786;2024-02-21T10:49:01;11.50;99.90
16976;DHT22;8604;48.148;-1.786;2024-02-21T10:51:33;11.50;99.90
16976;DHT22;8604;48.148;-1.786;2024-02-21T10:54:13;11.50;99.90
16976;DHT22;8604;48.148;-1.786;2024-02-21T10:56:50;11.50;99.90
16976;DHT22;8604;48.148;-1.786;2024-02-21T10:59:18;11.50;99.90
16976;DHT22;8604;48.148;-1.786;2024-02-21T11:01:47;11.50;99.90
16976;DHT22;8604;48.148;-1.786;2024-02-21T11:04:16;11.50;99.90
16976;DHT22;8604;48.148;-1.786;2024-02-21T11:06:45;11.60;99.90
16976;DHT22;8604;48.148;-1.786;2024-02-21T11:09:15;11.50;99.90
16976;DHT22;8604;48.148;-1.786;2024-02-21T11:11:44;11.60;99.90
16976;DHT22;8604;48.148;-1.786;2024-02-21T11:14:18;11.60;99.90
16976;DHT22;8604;48.148;-1.786;2024-02-21T11:16:48;11.60;99.90
16976;DHT22;8604;48.148;-1.786;2024-02-21T11:19:20;11.60;99.90
16976;DHT22;8604;48.148;-1.786;2024-02-21T11:21:50;11.50;99.90
16976;DHT22;8604;48.148;-1.786;2024-02-21T11:24:30;11.50;99.90
16976;DHT22;8604;48.148;-1.786;2024-02-21T11:27:11;11.50;99.90
16976;DHT22;8604;48.148;-1.786;2024-02-21T11:29:43;11.50;99.90
16976;DHT22;8604;48.148;-1.786;2024-02-21T11:32:14;11.50;99.90
16976;DHT22;8604;48.148;-1.786;2024-02-21T11:34:54;11.50;99.90
16976;DHT22;8604;48.148;-1.786;2024-02-21T11:37:25;11.50;99.90
16976;DHT22;8604;48.148;-1.786;2024-02-21T11:39:56;11.50;99.90
16976;DHT22;8604;48.148;-1.786;2024-02-21T11:42:25;11.50;99.90
16976;DHT22;8604;48.148;-1.786;2024-02-21T11:44:54;11.50;99.90
16976;DHT22;8604;48.148;-1.786;2024-02-21T11:47:24;11.50;99.90
16976;DHT22;8604;48.148;-1.786;2024-02-21T11:49:52;11.50;99.90
16976;DHT22;8604;48.148;-1.786;2024-02-21T11:52:22;11.50;99.90
16976;DHT22;8604;48.148;-1.786;2024-02-21T11:54:54;11.50;99.90
16976;DHT22;8604;48.148;-1.786;2024-02-21T11:57:26;11.50;99.90
16976;DHT22;8604;48.148;-1.786;2024-02-21T11:59:54;11.50;99.90
16976;DHT22;8604;48.148;-1.786;2024-02-21T12:02:26;11.50;99.90
16976;DHT22;8604;48.148;-1.786;2024-02-21T12:04:56;11.50;99.90
16976;DHT22;8604;48.148;-1.786;2024-02-21T12:07:25;11.50;99.90
16976;DHT22;8604;48.148;-1.786;2024-02-21T12:09:58;11.40;99.90
16976;DHT22;8604;48.148;-1.786;2024-02-21T12:12:29;11.40;99.90
16976;DHT22;8604;48.148;-1.786;2024-02-21T12:14:57;11.40;99.90
16976;DHT22;8604;48.148;-1.786;2024-02-21T12:17:26;11.40;99.90
16976;DHT22;8604;48.148;-1.786;2024-02-21T12:19:54;11.40;99.90
16976;DHT22;8604;48.148;-1.786;2024-02-21T12:22:25;11.40;99.90
16976;DHT22;8604;48.148;-1.786;2024-02-21T12:24:53;11.40;99.90
16976;DHT22;8604;48.148;-1.786;2024-02-21T12:27:21;11.40;99.90
16976;DHT22;8604;48.148;-1.786;2024-02-21T12:29:52;11.40;99.90
16976;DHT22;8604;48.148;-1.786;2024-02-21T12:32:20;11.30;99.90
16976;DHT22;8604;48.148;-1.786;2024-02-21T12:34:48;11.30;99.90
16976;DHT22;8604;48.148;-1.786;2024-02-21T12:37:22;11.30;99.90
16976;DHT22;8604;48.148;-1.786;2024-02-21T12:39:52;11.30;99.90
16976;DHT22;8604;48.148;-1.786;2024-02-21T12:42:20;11.30;99.90
16976;DHT22;8604;48.148;-1.786;2024-02-21T12:44:52;11.30;99.90
16976;DHT22;8604;48.148;-1.786;2024-02-21T12:47:20;11.20;99.90
16976;DHT22;8604;48.148;-1.786;2024-02-21T12:49:50;11.20;99.90
16976;DHT22;8604;48.148;-1.786;2024-02-21T12:52:19;11.10;99.90
16976;DHT22;8604;48.148;-1.786;2024-02-21T12:54:48;11.10;99.90
16976;DHT22;8604;48.148;-1.786;2024-02-21T12:57:17;11.10;99.90
16976;DHT22;8604;48.148;-1.786;2024-02-21T12:59:45;11.10;99.90
16976;DHT22;8604;48.148;-1.786;2024-02-21T13:02:15;11.00;99.90
16976;DHT22;8604;48.148;-1.786;2024-02-21T13:04:45;11.00;99.90
16976;DHT22;8604;48.148;-1.786;2024-02-21T13:07:14;11.00;99.90
16976;DHT22;8604;48.148;-1.786;2024-02-21T13:09:42;11.00;99.90
16976;DHT22;8604;48.148;-1.786;2024-02-21T13:12:11;11.00;99.90
16976;DHT22;8604;48.148;-1.786;2024-02-21T13:14:39;11.00;99.90
16976;DHT22;8604;48.148;-1.786;2024-02-21T13:17:10;11.00;99.90
16976;DHT22;8604;48.148;-1.786;2024-02-21T13:19:40;11.00;99.90
16976;DHT22;8604;48.148;-1.786;2024-02-21T13:22:09;11.00;99.90
16976;DHT22;8604;48.148;-1.786;2024-02-21T13:24:38;11.00;99.90
16976;DHT22;8604;48.148;-1.786;2024-02-21T13:27:06;11.00;99.90
16976;DHT22;8604;48.148;-1.786;2024-02-21T13:29:34;11.00;99.90
16976;DHT22;8604;48.148;-1.786;2024-02-21T13:32:03;11.10;99.90
16976;DHT22;8604;48.148;-1.786;2024-02-21T13:34:33;11.10;99.90
16976;DHT22;8604;48.148;-1.786;2024-02-21T13:37:03;11.10;99.90
16976;DHT22;8604;48.148;-1.786;2024-02-21T13:39:34;11.10;99.90
16976;DHT22;8604;48.148;-1.786;2024-02-21T13:42:03;11.10;99.90
16976;DHT22;8604;48.148;-1.786;2024-02-21T13:44:32;11.10;99.90
16976;DHT22;8604;48.148;-1.786;2024-02-21T13:47:01;11.20;99.90
16976;DHT22;8604;48.148;-1.786;2024-02-21T13:49:30;11.20;99.90
16976;DHT22;8604;48.148;-1.786;2024-02-21T13:51:59;11.20;99.90
16976;DHT22;8604;48.148;-1.786;2024-02-21T13:54:29;11.20;99.90
16976;DHT22;8604;48.148;-1.786;2024-02-21T13:56:58;11.20;99.90
16976;DHT22;8604;48.148;-1.786;2024-02-21T13:59:26;11.20;99.90
16976;DHT22;8604;48.148;-1.786;2024-02-21T14:01:55;11.20;99.90
16976;DHT22;8604;48.148;-1.786;2024-02-21T14:04:23;11.20;99.90
16976;DHT22;8604;48.148;-1.786;2024-02-21T14:06:51;11.30;99.90
16976;DHT22;8604;48.148;-1.786;2024-02-21T14:09:20;11.30;99.90
16976;DHT22;8604;48.148;-1.786;2024-02-21T14:11:50;11.30;99.90
16976;DHT22;8604;48.148;-1.786;2024-02-21T14:14:18;11.30;99.90
16976;DHT22;8604;48.148;-1.786;2024-02-21T14:16:47;11.30;99.90
16976;DHT22;8604;48.148;-1.786;2024-02-21T14:19:15;11.40;99.90
16976;DHT22;8604;48.148;-1.786;2024-02-21T14:21:44;11.40;99.90
16976;DHT22;8604;48.148;-1.786;2024-02-21T14:24:13;11.40;99.90
16976;DHT22;8604;48.148;-1.786;2024-02-21T14:26:41;11.40;99.90
16976;DHT22;8604;48.148;-1.786;2024-02-21T14:29:10;11.50;99.90
16976;DHT22;8604;48.148;-1.786;2024-02-21T14:31:39;11.50;99.90
16976;DHT22;8604;48.148;-1.786;2024-02-21T14:34:08;11.50;99.90
16976;DHT22;8604;48.148;-1.786;2024-02-21T14:36:37;11.50;99.90
16976;DHT22;8604;48.148;-1.786;2024-02-21T14:39:05;11.50;99.90
16976;DHT22;8604;48.148;-1.786;2024-02-21T14:41:33;11.60;99.90
16976;DHT22;8604;48.148;-1.786;2024-02-21T14:44:02;11.60;99.90
16976;DHT22;8604;48.148;-1.786;2024-02-21T14:46:34;11.70;99.90
16976;DHT22;8604;48.148;-1.786;2024-02-21T14:49:02;11.70;99.90
16976;DHT22;8604;48.148;-1.786;2024-02-21T14:51:31;11.70;99.90
16976;DHT22;8604;48.148;-1.786;2024-02-21T14:54:00;11.80;99.90
16976;DHT22;8604;48.148;-1.786;2024-02-21T14:56:28;11.80;99.90
16976;DHT22;8604;48.148;-1.786;2024-02-21T14:58:57;11.80;99.90
16976;DHT22;8604;48.148;-1.786;2024-02-21T15:01:38;11.90;99.90
16976;DHT22;8604;48.148;-1.786;2024-02-21T15:04:07;11.90;99.90
16976;DHT22;8604;48.148;-1.786;2024-02-21T15:06:36;11.90;99.90
16976;DHT22;8604;48.148;-1.786;2024-02-21T15:09:04;12.00;99.90
16976;DHT22;8604;48.148;-1.786;2024-02-21T15:11:34;12.00;99.90
16976;DHT22;8604;48.148;-1.786;2024-02-21T15:14:03;12.10;99.90
16976;DHT22;8604;48.148;-1.786;2024-02-21T15:16:31;12.10;99.90
16976;DHT22;8604;48.148;-1.786;2024-02-21T15:19:02;12.10;99.90
16976;DHT22;8604;48.148;-1.786;2024-02-21T15:21:30;12.10;99.90
16976;DHT22;8604;48.148;-1.786;2024-02-21T15:23:59;12.20;99.90
16976;DHT22;8604;48.148;-1.786;2024-02-21T15:26:29;12.20;99.90
16976;DHT22;8604;48.148;-1.786;2024-02-21T15:28:57;12.20;99.90
16976;DHT22;8604;48.148;-1.786;2024-02-21T15:31:26;12.20;99.90
16976;DHT22;8604;48.148;-1.786;2024-02-21T15:33:54;12.30;99.90
16976;DHT22;8604;48.148;-1.786;2024-02-21T15:36:24;12.30;99.90
16976;DHT22;8604;48.148;-1.786;2024-02-21T15:38:55;12.30;99.90
16976;DHT22;8604;48.148;-1.786;2024-02-21T15:41:25;12.40;99.90
16976;DHT22;8604;48.148;-1.786;2024-02-21T15:43:54;12.30;99.90
16976;DHT22;8604;48.148;-1.786;2024-02-21T15:46:24;12.40;99.90
16976;DHT22;8604;48.148;-1.786;2024-02-21T15:48:52;12.40;99.90